Time;durP1;ratioP1;P1;durP2;ratioP2;P2;SDS_P1;SDS_P2;PMS_P1;PMS_P2;Temp;Humidity;BMP_temperature;BMP_pressure;BME280_temperature;BME280_humidity;BME280_pressure;Samples;Min_cycle;Max_cycle;Signal;HPM_P1;HPM_P2
2021/08/13 00:00:19;;;;;;;;;;;12.50;92.30;;;;;;5093800;28;19909;-66
2021/08/13 00:02:46;;;;;;;;;;;12.60;92.50;;;;;;5093722;28;19921;-66
2021/08/13 00:05:12;;;;;;;;;;;12.70;92.30;;;;;;5093466;28;19908;-65
2021/08/13 00:07:39;;;;;;;;;;;12.70;91.60;;;;;;5093415;28;19934;-67
2021/08/13 00:10:06;;;;;;;;;;;12.70;92.00;;;;;;5093546;28;19908;-65
2021/08/13 00:12:33;;;;;;;;;;;12.80;91.90;;;;;;5093523;28;20280;-65
2021/08/13 00:15:00;;;;;;;;;;;12.90;91.70;;;;;;5093446;28;20114;-66
2021/08/13 00:17:27;;;;;;;;;;;13.00;91.30;;;;;;5093296;28;20354;-65
2021/08/13 00:19:54;;;;;;;;;;;13.10;91.30;;;;;;5093375;28;19912;-67
2021/08/13 00:22:21;;;;;;;;;;;13.10;90.70;;;;;;5093146;28;19912;-65
2021/08/13 00:24:48;;;;;;;;;;;13.20;91.00;;;;;;5093178;28;19958;-66
2021/08/13 00:27:15;;;;;;;;;;;13.30;90.10;;;;;;5093424;28;20021;-65
2021/08/13 00:29:42;;;;;;;;;;;13.30;90.10;;;;;;5092966;28;19915;-66
2021/08/13 00:32:08;;;;;;;;;;;13.40;90.20;;;;;;5093101;28;20052;-65
2021/08/13 00:34:35;;;;;;;;;;;13.60;90.00;;;;;;5092847;28;19923;-65
2021/08/13 00:37:01;;;;;;;;;;;13.70;89.20;;;;;;5093288;28;19953;-66
2021/08/13 00:39:28;;;;;;;;;;;13.80;88.80;;;;;;5093291;28;19999;-65
2021/08/13 00:41:55;;;;;;;;;;;13.80;88.60;;;;;;5092914;28;19909;-67
2021/08/13 00:44:21;;;;;;;;;;;13.90;88.30;;;;;;5092966;28;19908;-66
2021/08/13 00:46:48;;;;;;;;;;;13.80;88.70;;;;;;5092560;28;19924;-65
2021/08/13 00:49:15;;;;;;;;;;;13.90;89.10;;;;;;5092841;28;19935;-66
2021/08/13 00:51:43;;;;;;;;;;;14.00;89.50;;;;;;5092687;28;19935;-66
2021/08/13 00:54:09;;;;;;;;;;;14.00;88.70;;;;;;5091949;28;19923;-65
2021/08/13 00:56:36;;;;;;;;;;;14.10;89.10;;;;;;5092903;28;19912;-66
2021/08/13 00:59:04;;;;;;;;;;;14.10;89.10;;;;;;5092786;28;19915;-66
2021/08/13 01:01:31;;;;;;;;;;;14.20;89.20;;;;;;5092678;28;19931;-65
2021/08/13 01:03:58;;;;;;;;;;;14.30;87.80;;;;;;5092677;28;19953;-65
2021/08/13 01:06:24;;;;;;;;;;;14.30;88.30;;;;;;5092573;28;19954;-66
2021/08/13 01:08:51;;;;;;;;;;;14.50;87.30;;;;;;5092780;28;19979;-65
2021/08/13 01:11:36;;;;;;;;;;;14.70;86.70;;;;;;5092528;28;20013;-66
2021/08/13 01:14:06;;;;;;;;;;;15.10;86.00;;;;;;5092550;28;19916;-66
2021/08/13 01:16:34;;;;;;;;;;;15.40;85.70;;;;;;5092729;28;20052;-66
2021/08/13 01:19:05;;;;;;;;;;;15.80;83.70;;;;;;5092472;28;19919;-66
2021/08/13 01:21:44;;;;;;;;;;;16.10;82.70;;;;;;5092296;28;19908;-65
2021/08/13 01:24:22;;;;;;;;;;;16.30;81.60;;;;;;5092398;28;19912;-66
2021/08/13 01:26:51;;;;;;;;;;;16.70;80.80;;;;;;5092404;28;19912;-67
2021/08/13 01:29:41;;;;;;;;;;;16.60;81.00;;;;;;5092389;28;19930;-66
2021/08/13 01:32:11;;;;;;;;;;;16.70;80.80;;;;;;5084655;28;19915;-66
2021/08/13 01:34:42;;;;;;;;;;;16.50;80.30;;;;;;5092271;28;19923;-65
2021/08/13 01:37:09;;;;;;;;;;;16.30;80.00;;;;;;5092597;28;19909;-65
2021/08/13 01:39:35;;;;;;;;;;;16.10;80.50;;;;;;5092204;28;19999;-65
2021/08/13 01:42:03;;;;;;;;;;;15.90;80.60;;;;;;5092230;28;20339;-65
2021/08/13 01:44:31;;;;;;;;;;;15.90;81.80;;;;;;5092166;28;19958;-65
2021/08/13 01:46:59;;;;;;;;;;;15.90;81.30;;;;;;5091981;28;19920;-66
2021/08/13 01:49:25;;;;;;;;;;;15.80;81.30;;;;;;5092127;28;19908;-65
2021/08/13 01:51:53;;;;;;;;;;;15.70;82.00;;;;;;5073347;28;19909;-65
2021/08/13 01:54:20;;;;;;;;;;;15.70;81.80;;;;;;5071691;28;19923;-65
2021/08/13 01:56:47;;;;;;;;;;;15.70;81.90;;;;;;5071799;28;20007;-65
2021/08/13 01:59:14;;;;;;;;;;;15.70;81.10;;;;;;5071916;28;20378;-65
2021/08/13 02:01:42;;;;;;;;;;;15.70;81.40;;;;;;5071671;28;19957;-65
2021/08/13 02:04:09;;;;;;;;;;;15.80;82.60;;;;;;5072001;28;20266;-65
2021/08/13 02:06:36;;;;;;;;;;;16.00;81.50;;;;;;5074961;28;19909;-66
2021/08/13 02:09:03;;;;;;;;;;;16.10;82.10;;;;;;5075737;28;19909;-66
2021/08/13 02:11:30;;;;;;;;;;;16.00;81.30;;;;;;5075637;28;20256;-66
2021/08/13 02:13:57;;;;;;;;;;;16.00;81.40;;;;;;5074996;28;19971;-66
2021/08/13 02:16:28;;;;;;;;;;;16.00;81.70;;;;;;5075567;28;19912;-67
2021/08/13 02:18:59;;;;;;;;;;;16.00;82.80;;;;;;5075431;28;20290;-65
2021/08/13 02:21:26;;;;;;;;;;;16.20;81.70;;;;;;5075368;28;19908;-66
2021/08/13 02:23:53;;;;;;;;;;;16.20;82.70;;;;;;5075088;28;19908;-67
2021/08/13 02:26:20;;;;;;;;;;;16.20;81.80;;;;;;5075308;28;19943;-67
2021/08/13 02:28:46;;;;;;;;;;;16.20;84.20;;;;;;5075300;28;19932;-66
2021/08/13 02:31:13;;;;;;;;;;;16.40;82.00;;;;;;5075239;28;20270;-66
2021/08/13 02:33:39;;;;;;;;;;;16.30;81.90;;;;;;5074972;28;19917;-66
2021/08/13 02:36:10;;;;;;;;;;;16.20;82.60;;;;;;5075076;28;19908;-66
2021/08/13 02:38:49;;;;;;;;;;;16.30;81.70;;;;;;5075058;28;19954;-66
2021/08/13 02:41:16;;;;;;;;;;;16.40;81.80;;;;;;5075013;28;19908;-66
2021/08/13 02:43:48;;;;;;;;;;;16.40;82.20;;;;;;5074641;28;19915;-65
2021/08/13 02:46:15;;;;;;;;;;;16.40;82.40;;;;;;5074611;28;19922;-66
2021/08/13 02:48:42;;;;;;;;;;;16.30;82.30;;;;;;5074630;28;20355;-65
2021/08/13 02:51:09;;;;;;;;;;;16.30;82.30;;;;;;5074925;28;19909;-65
2021/08/13 02:53:38;;;;;;;;;;;16.20;82.60;;;;;;5074591;28;19913;-65
2021/08/13 02:56:07;;;;;;;;;;;16.30;83.30;;;;;;5074499;28;19920;-65
2021/08/13 02:58:42;;;;;;;;;;;16.50;82.30;;;;;;5074737;28;19951;-64
2021/08/13 03:01:12;;;;;;;;;;;16.60;81.30;;;;;;5074673;28;19908;-65
2021/08/13 03:03:38;;;;;;;;;;;16.60;81.30;;;;;;5074247;28;19913;-65
2021/08/13 03:06:06;;;;;;;;;;;16.60;82.10;;;;;;5074533;28;19913;-65
2021/08/13 03:08:34;;;;;;;;;;;16.50;82.30;;;;;;5074741;28;20409;-64
2021/08/13 03:11:01;;;;;;;;;;;16.60;82.90;;;;;;5074285;28;19919;-65
2021/08/13 03:13:28;;;;;;;;;;;16.70;82.90;;;;;;5074564;28;19924;-65
2021/08/13 03:15:56;;;;;;;;;;;16.60;82.40;;;;;;5073648;28;19934;-66
2021/08/13 03:18:24;;;;;;;;;;;16.60;82.60;;;;;;5073842;28;19908;-65
2021/08/13 03:20:50;;;;;;;;;;;16.70;83.90;;;;;;5073969;28;20371;-65
2021/08/13 03:23:17;;;;;;;;;;;16.90;83.30;;;;;;5074310;28;19919;-65
2021/08/13 03:25:44;;;;;;;;;;;16.80;83.30;;;;;;5074185;28;19915;-65
2021/08/13 03:28:11;;;;;;;;;;;16.80;81.40;;;;;;5074066;28;19912;-65
2021/08/13 03:30:39;;;;;;;;;;;16.90;82.60;;;;;;5074147;28;20003;-66
2021/08/13 03:33:06;;;;;;;;;;;16.90;82.40;;;;;;5073687;28;19990;-65
2021/08/13 03:35:33;;;;;;;;;;;17.10;83.40;;;;;;5073639;28;20004;-66
2021/08/13 03:37:59;;;;;;;;;;;17.20;82.80;;;;;;5074401;28;19908;-65
2021/08/13 03:40:26;;;;;;;;;;;17.30;83.20;;;;;;5073874;28;19915;-66
2021/08/13 03:42:53;;;;;;;;;;;17.30;83.30;;;;;;5073605;28;19908;-66
2021/08/13 03:45:19;;;;;;;;;;;17.40;83.40;;;;;;5073957;28;19943;-66
2021/08/13 03:47:46;;;;;;;;;;;17.50;82.30;;;;;;5073065;28;20290;-66
2021/08/13 03:50:13;;;;;;;;;;;17.60;82.90;;;;;;5073533;28;20267;-66
2021/08/13 03:52:39;;;;;;;;;;;17.80;81.50;;;;;;5073511;28;20355;-66
2021/08/13 03:55:06;;;;;;;;;;;17.80;81.00;;;;;;5073507;28;20260;-64
2021/08/13 03:57:33;;;;;;;;;;;17.80;81.50;;;;;;5073471;28;19952;-65
2021/08/13 03:59:59;;;;;;;;;;;17.70;81.90;;;;;;5073472;28;19959;-65
2021/08/13 04:02:26;;;;;;;;;;;17.60;82.30;;;;;;5073318;28;20267;-65
2021/08/13 04:04:53;;;;;;;;;;;17.40;82.20;;;;;;5073259;28;19908;-66
2021/08/13 04:07:19;;;;;;;;;;;17.30;82.00;;;;;;5073453;28;20096;-65
2021/08/13 04:09:46;;;;;;;;;;;17.50;81.00;;;;;;5073007;28;19940;-65
2021/08/13 04:12:12;;;;;;;;;;;17.60;81.00;;;;;;5073327;28;20025;-66
2021/08/13 04:14:39;;;;;;;;;;;17.60;80.20;;;;;;5073149;28;20314;-67
2021/08/13 04:17:06;;;;;;;;;;;17.50;80.70;;;;;;5073241;28;19908;-66
2021/08/13 04:19:32;;;;;;;;;;;17.50;80.80;;;;;;5072760;28;19916;-67
2021/08/13 04:22:01;;;;;;;;;;;17.40;80.60;;;;;;5073176;28;19915;-66
2021/08/13 04:24:28;;;;;;;;;;;17.20;81.50;;;;;;5072888;28;20267;-67
2021/08/13 04:26:55;;;;;;;;;;;17.40;82.30;;;;;;5072823;28;19909;-65
2021/08/13 04:29:22;;;;;;;;;;;17.50;80.60;;;;;;5072720;28;19966;-66
2021/08/13 04:31:48;;;;;;;;;;;17.60;79.50;;;;;;5072855;28;20401;-66
2021/08/13 04:34:15;;;;;;;;;;;17.50;79.80;;;;;;5072755;28;20448;-65
2021/08/13 04:36:42;;;;;;;;;;;17.40;79.70;;;;;;5072963;28;20003;-66
2021/08/13 04:39:09;;;;;;;;;;;17.30;79.80;;;;;;5073195;28;19995;-66
2021/08/13 04:41:36;;;;;;;;;;;17.20;80.00;;;;;;5072361;28;19909;-66
2021/08/13 04:44:03;;;;;;;;;;;17.10;80.00;;;;;;5072557;28;19908;-66
2021/08/13 04:46:30;;;;;;;;;;;17.10;80.90;;;;;;5072536;28;20409;-66
2021/08/13 04:48:57;;;;;;;;;;;17.20;80.40;;;;;;5072504;28;19909;-65
2021/08/13 04:51:23;;;;;;;;;;;17.20;79.20;;;;;;5072484;28;19916;-66
2021/08/13 04:53:50;;;;;;;;;;;17.30;77.20;;;;;;5072146;28;19920;-66
2021/08/13 04:56:17;;;;;;;;;;;17.40;76.90;;;;;;5072582;28;20328;-66
2021/08/13 04:58:44;;;;;;;;;;;17.30;77.30;;;;;;5072587;28;20003;-66
2021/08/13 05:01:10;;;;;;;;;;;17.20;77.60;;;;;;5072121;28;19962;-66
2021/08/13 05:03:37;;;;;;;;;;;17.20;77.70;;;;;;5072219;28;20314;-66
2021/08/13 05:06:04;;;;;;;;;;;17.20;77.00;;;;;;5072421;28;19916;-66
2021/08/13 05:08:30;;;;;;;;;;;17.30;77.00;;;;;;5072423;28;19920;-66
2021/08/13 05:10:57;;;;;;;;;;;17.20;77.10;;;;;;5072570;28;19909;-66
2021/08/13 05:13:24;;;;;;;;;;;17.10;77.90;;;;;;5072113;28;19917;-66
2021/08/13 05:15:50;;;;;;;;;;;17.00;77.20;;;;;;5072284;28;19991;-67
2021/08/13 05:18:17;;;;;;;;;;;17.00;77.00;;;;;;5072423;28;19912;-68
2021/08/13 05:20:44;;;;;;;;;;;17.00;75.80;;;;;;5072320;28;19913;-68
2021/08/13 05:23:10;;;;;;;;;;;17.10;76.20;;;;;;5072468;28;19988;-68
2021/08/13 05:25:37;;;;;;;;;;;17.10;76.30;;;;;;5072112;28;20262;-69
2021/08/13 05:28:03;;;;;;;;;;;17.20;73.80;;;;;;5072421;28;19908;-67
2021/08/13 05:30:30;;;;;;;;;;;17.30;73.60;;;;;;5072521;28;20398;-66
2021/08/13 05:32:57;;;;;;;;;;;17.40;72.30;;;;;;5071841;28;19949;-66
2021/08/13 05:35:23;;;;;;;;;;;17.50;73.60;;;;;;5072185;28;19920;-66
2021/08/13 05:37:50;;;;;;;;;;;17.50;73.80;;;;;;5072080;28;19912;-65
2021/08/13 05:40:17;;;;;;;;;;;17.40;74.30;;;;;;5074168;28;19916;-66
2021/08/13 05:42:43;;;;;;;;;;;17.30;74.70;;;;;;5076088;28;19940;-65
2021/08/13 05:45:10;;;;;;;;;;;17.30;74.70;;;;;;5076103;28;19998;-65
2021/08/13 05:47:39;;;;;;;;;;;17.20;78.40;;;;;;5075660;28;20027;-65
2021/08/13 05:50:10;;;;;;;;;;;17.20;87.20;;;;;;5076080;28;20355;-64
2021/08/13 05:52:37;;;;;;;;;;;17.20;88.90;;;;;;5057700;28;20279;-66
2021/08/13 05:55:04;;;;;;;;;;;17.00;89.70;;;;;;5075648;28;19933;-67
2021/08/13 05:57:31;;;;;;;;;;;16.80;90.10;;;;;;5075473;28;20007;-66
2021/08/13 05:59:58;;;;;;;;;;;16.70;90.60;;;;;;5075689;28;19954;-66
2021/08/13 06:02:24;;;;;;;;;;;16.70;90.90;;;;;;5075720;28;19927;-65
2021/08/13 06:04:51;;;;;;;;;;;16.60;91.30;;;;;;5075776;28;19919;-65
2021/08/13 06:07:18;;;;;;;;;;;16.50;91.30;;;;;;5075502;28;19926;-66
2021/08/13 06:09:44;;;;;;;;;;;16.50;91.40;;;;;;5075426;28;19919;-66
2021/08/13 06:12:11;;;;;;;;;;;16.50;91.20;;;;;;5075573;28;20007;-65
2021/08/13 06:14:37;;;;;;;;;;;16.50;91.40;;;;;;5075480;28;19956;-66
2021/08/13 06:17:04;;;;;;;;;;;16.50;91.80;;;;;;5075144;28;19942;-66
2021/08/13 06:19:31;;;;;;;;;;;16.50;92.10;;;;;;5074892;28;20306;-67
2021/08/13 06:21:58;;;;;;;;;;;16.40;92.30;;;;;;5075225;28;20325;-66
2021/08/13 06:24:25;;;;;;;;;;;16.50;92.70;;;;;;5074893;28;19913;-67
2021/08/13 06:26:52;;;;;;;;;;;16.40;92.90;;;;;;5075172;28;19908;-66
2021/08/13 06:29:22;;;;;;;;;;;16.40;93.50;;;;;;5075174;28;19984;-66
2021/08/13 06:31:49;;;;;;;;;;;16.50;93.40;;;;;;5075024;28;20252;-66
2021/08/13 06:34:19;;;;;;;;;;;16.50;93.40;;;;;;5075099;28;20333;-66
2021/08/13 06:36:46;;;;;;;;;;;16.40;93.80;;;;;;5074892;28;19909;-67
2021/08/13 06:39:12;;;;;;;;;;;16.30;94.10;;;;;;5075053;28;20337;-67
2021/08/13 06:41:39;;;;;;;;;;;16.30;94.30;;;;;;5074685;28;19916;-65
2021/08/13 06:44:06;;;;;;;;;;;16.20;94.90;;;;;;5075025;28;19908;-67
2021/08/13 06:46:33;;;;;;;;;;;16.20;95.10;;;;;;5074829;28;19921;-67
2021/08/13 06:49:00;;;;;;;;;;;16.20;95.40;;;;;;5074954;28;20389;-66
2021/08/13 06:51:27;;;;;;;;;;;16.10;95.80;;;;;;5072843;28;20028;-66
2021/08/13 06:53:53;;;;;;;;;;;16.00;96.00;;;;;;5072680;28;20019;-66
2021/08/13 06:56:20;;;;;;;;;;;16.00;96.40;;;;;;5072791;28;19995;-65
2021/08/13 06:58:47;;;;;;;;;;;15.90;96.60;;;;;;5072694;28;20425;-65
2021/08/13 07:01:13;;;;;;;;;;;15.90;96.90;;;;;;5072769;28;19909;-65
2021/08/13 07:03:40;;;;;;;;;;;15.80;97.20;;;;;;5072102;28;19912;-66
2021/08/13 07:06:06;;;;;;;;;;;15.70;97.60;;;;;;5072319;28;20289;-67
2021/08/13 07:08:33;;;;;;;;;;;15.70;97.80;;;;;;5072458;28;19908;-66
2021/08/13 07:11:00;;;;;;;;;;;15.60;97.70;;;;;;5072342;28;20292;-66
2021/08/13 07:13:26;;;;;;;;;;;15.60;98.00;;;;;;5072169;28;20536;-67
2021/08/13 07:15:53;;;;;;;;;;;15.60;98.10;;;;;;5072066;28;19917;-67
2021/08/13 07:18:20;;;;;;;;;;;15.60;98.20;;;;;;5071708;28;19920;-65
2021/08/13 07:20:46;;;;;;;;;;;15.60;98.10;;;;;;5072139;28;19908;-66
2021/08/13 07:23:13;;;;;;;;;;;15.60;98.10;;;;;;5072371;28;19908;-65
2021/08/13 07:25:39;;;;;;;;;;;15.60;98.30;;;;;;5072015;28;20359;-66
2021/08/13 07:28:06;;;;;;;;;;;15.50;98.40;;;;;;5072255;28;19908;-66
2021/08/13 07:30:33;;;;;;;;;;;15.50;98.40;;;;;;5071665;28;20547;-65
2021/08/13 07:32:59;;;;;;;;;;;15.40;98.50;;;;;;5071865;28;19954;-66
2021/08/13 07:35:26;;;;;;;;;;;15.40;98.70;;;;;;5071944;28;19924;-66
2021/08/13 07:37:53;;;;;;;;;;;15.40;99.00;;;;;;5071612;28;19914;-66
2021/08/13 07:40:19;;;;;;;;;;;15.20;99.30;;;;;;5071951;28;19913;-64
2021/08/13 07:42:46;;;;;;;;;;;15.20;99.40;;;;;;5071706;28;19908;-64
2021/08/13 07:45:13;;;;;;;;;;;15.10;99.60;;;;;;5070949;28;19912;-64
2021/08/13 07:47:39;;;;;;;;;;;15.10;99.70;;;;;;5071715;28;19928;-64
2021/08/13 07:50:07;;;;;;;;;;;15.10;99.90;;;;;;5071345;28;19916;-65
2021/08/13 07:52:33;;;;;;;;;;;15.10;99.90;;;;;;5071770;28;19912;-65
2021/08/13 07:55:00;;;;;;;;;;;15.00;99.90;;;;;;5071419;28;20295;-65
2021/08/13 07:57:27;;;;;;;;;;;15.00;99.90;;;;;;5071325;28;19916;-65
2021/08/13 07:59:54;;;;;;;;;;;14.90;99.90;;;;;;5070693;28;19912;-67
2021/08/13 08:02:21;;;;;;;;;;;14.80;99.90;;;;;;5070625;28;19959;-67
2021/08/13 08:04:48;;;;;;;;;;;14.70;99.90;;;;;;5070794;28;20367;-67
2021/08/13 08:07:14;;;;;;;;;;;14.70;99.90;;;;;;5071329;28;19919;-67
2021/08/13 08:09:41;;;;;;;;;;;14.70;99.90;;;;;;5071025;28;19913;-67
2021/08/13 08:12:08;;;;;;;;;;;14.80;99.90;;;;;;5070697;28;20046;-68
2021/08/13 08:14:35;;;;;;;;;;;14.90;99.90;;;;;;5071133;28;19947;-68
2021/08/13 08:17:02;;;;;;;;;;;14.80;99.90;;;;;;5071437;28;20291;-68
2021/08/13 08:19:28;;;;;;;;;;;14.80;99.90;;;;;;5070513;28;19962;-67
2021/08/13 08:21:55;;;;;;;;;;;14.80;99.90;;;;;;5071088;28;19908;-66
2021/08/13 08:24:22;;;;;;;;;;;14.80;99.90;;;;;;5070711;28;19912;-64
2021/08/13 08:26:49;;;;;;;;;;;14.80;99.90;;;;;;5053126;28;20331;-65
2021/08/13 08:29:16;;;;;;;;;;;14.80;99.90;;;;;;5070727;28;20007;-67
2021/08/13 08:31:42;;;;;;;;;;;14.70;99.90;;;;;;5070374;28;19919;-65
2021/08/13 08:34:09;;;;;;;;;;;14.70;99.90;;;;;;5070837;28;20007;-65
2021/08/13 08:36:36;;;;;;;;;;;14.70;99.90;;;;;;5070086;28;19909;-65
2021/08/13 08:39:04;;;;;;;;;;;14.70;99.90;;;;;;5070936;28;19908;-64
2021/08/13 08:41:30;;;;;;;;;;;14.70;99.90;;;;;;5070306;28;19919;-65
2021/08/13 08:43:57;;;;;;;;;;;14.70;99.90;;;;;;5070390;28;20318;-65
2021/08/13 08:46:24;;;;;;;;;;;14.60;99.90;;;;;;5070436;28;20363;-66
2021/08/13 08:48:52;;;;;;;;;;;14.60;99.90;;;;;;5070495;28;19917;-65
2021/08/13 08:51:19;;;;;;;;;;;14.50;99.90;;;;;;5069479;28;19912;-66
2021/08/13 08:53:50;;;;;;;;;;;14.40;99.90;;;;;;5069958;28;19916;-65
2021/08/13 08:56:18;;;;;;;;;;;14.40;99.90;;;;;;5070324;28;20375;-66
2021/08/13 08:58:45;;;;;;;;;;;14.30;99.90;;;;;;5070391;28;19954;-65
2021/08/13 09:01:15;;;;;;;;;;;14.30;99.90;;;;;;5070317;28;20047;-65
2021/08/13 09:03:42;;;;;;;;;;;14.20;99.90;;;;;;5069978;28;20003;-66
2021/08/13 09:06:09;;;;;;;;;;;14.10;99.90;;;;;;5071294;28;19909;-66
2021/08/13 09:08:37;;;;;;;;;;;14.10;99.90;;;;;;5071948;28;20310;-65
2021/08/13 09:11:04;;;;;;;;;;;14.00;99.90;;;;;;5072681;28;20334;-66
2021/08/13 09:13:33;;;;;;;;;;;14.00;99.90;;;;;;5072241;28;20019;-67
2021/08/13 09:16:10;;;;;;;;;;;14.00;99.90;;;;;;5072477;28;19954;-67
2021/08/13 09:18:37;;;;;;;;;;;14.10;99.90;;;;;;5072211;28;19952;-66
2021/08/13 09:21:04;;;;;;;;;;;14.10;99.90;;;;;;5072225;28;20385;-66
2021/08/13 09:23:46;;;;;;;;;;;14.10;99.90;;;;;;5072066;28;19908;-66
2021/08/13 09:26:14;;;;;;;;;;;14.10;99.90;;;;;;5072237;28;19908;-66
2021/08/13 09:28:49;;;;;;;;;;;14.10;99.90;;;;;;5072276;28;20424;-64
2021/08/13 09:31:20;;;;;;;;;;;14.10;99.90;;;;;;5072069;28;19909;-65
2021/08/13 09:33:48;;;;;;;;;;;14.10;99.90;;;;;;5071578;28;19963;-65
2021/08/13 09:36:16;;;;;;;;;;;14.10;99.90;;;;;;5072200;28;19909;-66
2021/08/13 09:38:44;;;;;;;;;;;14.10;99.90;;;;;;5072090;28;19909;-67
2021/08/13 09:41:12;;;;;;;;;;;14.10;99.90;;;;;;5072244;28;20363;-67
2021/08/13 09:43:52;;;;;;;;;;;14.00;99.90;;;;;;5071914;28;19936;-66
2021/08/13 09:46:19;;;;;;;;;;;14.00;99.90;;;;;;5071590;28;19920;-66
2021/08/13 09:48:45;;;;;;;;;;;14.00;99.90;;;;;;5072184;28;19909;-66
2021/08/13 09:51:34;;;;;;;;;;;14.00;99.90;;;;;;5072074;28;19934;-66
2021/08/13 09:54:05;;;;;;;;;;;14.00;99.90;;;;;;5071940;28;19962;-65
2021/08/13 09:56:33;;;;;;;;;;;14.00;99.90;;;;;;5072114;28;19952;-66
2021/08/13 09:59:12;;;;;;;;;;;14.00;99.90;;;;;;5071913;28;20007;-66
2021/08/13 10:01:40;;;;;;;;;;;14.00;99.90;;;;;;5071850;28;19909;-66
2021/08/13 10:04:07;;;;;;;;;;;14.00;99.90;;;;;;5054185;28;20019;-66
2021/08/13 10:06:35;;;;;;;;;;;14.00;99.90;;;;;;5071813;28;19919;-66
2021/08/13 10:09:02;;;;;;;;;;;14.00;99.90;;;;;;5071849;28;19912;-65
2021/08/13 10:11:32;;;;;;;;;;;14.10;99.90;;;;;;5071815;28;19908;-66
2021/08/13 10:13:59;;;;;;;;;;;14.00;99.90;;;;;;5071689;28;20015;-65
2021/08/13 10:16:27;;;;;;;;;;;14.00;99.90;;;;;;5071548;28;20387;-66
2021/08/13 10:18:57;;;;;;;;;;;14.00;99.90;;;;;;5071701;28;19915;-67
2021/08/13 10:21:24;;;;;;;;;;;14.00;99.90;;;;;;5071814;28;19908;-66
2021/08/13 10:23:54;;;;;;;;;;;14.00;99.90;;;;;;5071620;28;19917;-66
2021/08/13 10:26:21;;;;;;;;;;;14.00;99.90;;;;;;5074016;28;19913;-66
2021/08/13 10:28:49;;;;;;;;;;;14.00;99.90;;;;;;5075285;28;19909;-66
2021/08/13 10:31:18;;;;;;;;;;;14.00;99.90;;;;;;5075144;28;19909;-65
2021/08/13 10:33:46;;;;;;;;;;;14.00;99.90;;;;;;5074883;28;19916;-67
2021/08/13 10:36:17;;;;;;;;;;;14.00;99.90;;;;;;5075304;28;20283;-66
2021/08/13 10:38:47;;;;;;;;;;;14.00;99.90;;;;;;5075198;28;19916;-67
2021/08/13 10:41:14;;;;;;;;;;;13.90;99.90;;;;;;5075464;28;20003;-67
2021/08/13 10:43:42;;;;;;;;;;;13.90;99.90;;;;;;5074737;28;20018;-68
2021/08/13 10:46:10;;;;;;;;;;;13.80;99.90;;;;;;5074657;28;19916;-68
2021/08/13 10:48:41;;;;;;;;;;;13.80;99.90;;;;;;5074958;28;19916;-66
2021/08/13 10:51:08;;;;;;;;;;;13.80;99.90;;;;;;5074848;28;20446;-66
2021/08/13 10:53:37;;;;;;;;;;;13.70;99.90;;;;;;5075041;28;19920;-65
2021/08/13 10:56:04;;;;;;;;;;;13.70;99.90;;;;;;5074766;28;19930;-68
2021/08/13 10:58:40;;;;;;;;;;;13.70;99.90;;;;;;5074719;28;19912;-68
2021/08/13 11:01:09;;;;;;;;;;;13.60;99.90;;;;;;5074506;28;19908;-67
2021/08/13 11:03:41;;;;;;;;;;;13.60;99.90;;;;;;5075856;28;19971;-67
2021/08/13 11:06:09;;;;;;;;;;;13.60;99.90;;;;;;5094150;28;19999;-68
2021/08/13 11:08:41;;;;;;;;;;;13.50;99.90;;;;;;5095368;28;20266;-67
2021/08/13 11:11:08;;;;;;;;;;;13.50;99.90;;;;;;5094935;28;19908;-67
2021/08/13 11:13:39;;;;;;;;;;;13.50;99.90;;;;;;5094515;28;19919;-66
2021/08/13 11:16:24;;;;;;;;;;;13.50;99.90;;;;;;5093662;28;19912;-65
2021/08/13 11:19:00;;;;;;;;;;;13.60;99.90;;;;;;5094743;28;19908;-67
2021/08/13 11:21:37;;;;;;;;;;;13.50;99.90;;;;;;5093508;28;20367;-65
2021/08/13 11:24:05;;;;;;;;;;;13.50;99.90;;;;;;5093132;28;19916;-65
2021/08/13 11:26:50;;;;;;;;;;;13.50;99.90;;;;;;5093662;28;19912;-65
2021/08/13 11:29:39;;;;;;;;;;;13.40;99.90;;;;;;5093937;28;19918;-66
2021/08/13 11:32:07;;;;;;;;;;;13.30;99.90;;;;;;5093855;28;19963;-66
2021/08/13 11:34:46;;;;;;;;;;;13.30;99.90;;;;;;5094122;28;19916;-67
2021/08/13 11:37:28;;;;;;;;;;;13.30;99.90;;;;;;5093435;28;19909;-68
2021/08/13 11:39:58;;;;;;;;;;;13.30;99.90;;;;;;5094090;28;19908;-65
2021/08/13 11:42:35;;;;;;;;;;;13.30;99.90;;;;;;5094293;28;19953;-66
2021/08/13 11:45:10;;;;;;;;;;;13.30;99.90;;;;;;5094070;28;19912;-66
2021/08/13 11:47:37;;;;;;;;;;;13.30;99.90;;;;;;5093425;28;19931;-66
2021/08/13 11:50:04;;;;;;;;;;;13.30;99.90;;;;;;5094199;28;19908;-66
2021/08/13 11:52:32;;;;;;;;;;;13.20;99.90;;;;;;5093937;28;19912;-68
2021/08/13 11:55:17;;;;;;;;;;;13.30;99.90;;;;;;5094078;28;19923;-65
2021/08/13 11:57:44;;;;;;;;;;;13.30;99.90;;;;;;5093753;28;19912;-64
2021/08/13 12:00:17;;;;;;;;;;;13.30;99.90;;;;;;5093662;28;20013;-66
2021/08/13 12:02:44;;;;;;;;;;;13.30;99.90;;;;;;5093148;28;19915;-64
2021/08/13 12:05:11;;;;;;;;;;;13.40;99.90;;;;;;5093891;28;19908;-65
2021/08/13 12:07:38;;;;;;;;;;;13.30;99.90;;;;;;5093320;28;19908;-65
2021/08/13 12:10:09;;;;;;;;;;;13.30;99.90;;;;;;5093513;28;19908;-66
2021/08/13 12:12:36;;;;;;;;;;;13.30;99.90;;;;;;5090926;28;19916;-66
2021/08/13 12:15:03;;;;;;;;;;;13.20;99.90;;;;;;5091333;28;19927;-65
2021/08/13 12:17:30;;;;;;;;;;;13.20;99.90;;;;;;5091111;28;20586;-65
2021/08/13 12:20:01;;;;;;;;;;;13.20;99.90;;;;;;5091222;28;19929;-65
2021/08/13 12:22:31;;;;;;;;;;;13.20;99.90;;;;;;5091151;28;19909;-65
2021/08/13 12:24:58;;;;;;;;;;;13.20;99.90;;;;;;5090755;28;19908;-66
2021/08/13 12:27:28;;;;;;;;;;;13.20;99.90;;;;;;5091325;28;19912;-66
2021/08/13 12:29:55;;;;;;;;;;;13.20;99.90;;;;;;5090952;28;19919;-67
2021/08/13 12:32:33;;;;;;;;;;;13.20;99.80;;;;;;5090500;28;19912;-66
2021/08/13 12:35:00;;;;;;;;;;;13.20;99.80;;;;;;5090883;28;19920;-65
2021/08/13 12:37:27;;;;;;;;;;;13.10;99.40;;;;;;5090918;28;20402;-66
2021/08/13 12:39:53;;;;;;;;;;;13.10;99.60;;;;;;5090811;28;19908;-65
2021/08/13 12:42:20;;;;;;;;;;;13.10;99.50;;;;;;5090988;28;19995;-65
2021/08/13 12:44:47;;;;;;;;;;;13.10;99.50;;;;;;5090932;28;19912;-64
2021/08/13 12:47:14;;;;;;;;;;;13.10;99.30;;;;;;5090216;28;20340;-66
2021/08/13 12:49:41;;;;;;;;;;;13.00;99.10;;;;;;5090664;28;19915;-66
2021/08/13 12:52:11;;;;;;;;;;;13.00;99.00;;;;;;5090844;28;19915;-65
2021/08/13 12:54:38;;;;;;;;;;;13.10;99.10;;;;;;5090744;28;19952;-67
2021/08/13 12:57:11;;;;;;;;;;;13.00;99.00;;;;;;5090950;28;20389;-67
2021/08/13 12:59:38;;;;;;;;;;;13.00;98.80;;;;;;5090607;28;19915;-66
2021/08/13 13:02:05;;;;;;;;;;;13.10;98.50;;;;;;5090124;28;20336;-65
2021/08/13 13:04:39;;;;;;;;;;;13.10;98.30;;;;;;5090120;28;20277;-66
2021/08/13 13:07:12;;;;;;;;;;;13.10;98.50;;;;;;5090817;28;19908;-66
2021/08/13 13:09:40;;;;;;;;;;;13.10;98.30;;;;;;5090631;28;19953;-67
2021/08/13 13:12:15;;;;;;;;;;;13.10;98.40;;;;;;5090717;28;20378;-67
2021/08/13 13:14:43;;;;;;;;;;;13.10;98.40;;;;;;5090218;28;19920;-66
2021/08/13 13:17:10;;;;;;;;;;;13.10;98.80;;;;;;5089664;28;19982;-67
2021/08/13 13:19:38;;;;;;;;;;;13.10;98.90;;;;;;5090255;28;20302;-67
2021/08/13 13:22:23;;;;;;;;;;;13.10;98.90;;;;;;5090736;28;19962;-67
2021/08/13 13:25:13;;;;;;;;;;;13.10;98.70;;;;;;5090421;28;19922;-67
2021/08/13 13:27:54;;;;;;;;;;;13.10;98.50;;;;;;5082009;28;19908;-66
2021/08/13 13:30:34;;;;;;;;;;;13.00;98.40;;;;;;5089225;28;20278;-66
2021/08/13 13:33:05;;;;;;;;;;;13.10;98.30;;;;;;5090240;28;19916;-66
2021/08/13 13:35:32;;;;;;;;;;;13.10;98.10;;;;;;5090466;28;19967;-68
2021/08/13 13:38:00;;;;;;;;;;;13.00;98.30;;;;;;5090245;28;20355;-67
2021/08/13 13:40:31;;;;;;;;;;;13.10;98.40;;;;;;5090250;28;19947;-67
2021/08/13 13:42:58;;;;;;;;;;;13.00;98.60;;;;;;5089793;28;19912;-66
2021/08/13 13:45:25;;;;;;;;;;;13.00;98.80;;;;;;5089667;28;19995;-66
2021/08/13 13:47:53;;;;;;;;;;;13.00;98.70;;;;;;5089652;28;20345;-67
2021/08/13 13:50:20;;;;;;;;;;;13.00;98.70;;;;;;5090294;28;20242;-67
2021/08/13 13:52:46;;;;;;;;;;;13.00;98.40;;;;;;5090384;28;19967;-67
2021/08/13 13:55:13;;;;;;;;;;;12.90;98.50;;;;;;5089854;28;19920;-66
2021/08/13 13:57:40;;;;;;;;;;;12.90;98.50;;;;;;5089856;28;19912;-66
2021/08/13 14:00:11;;;;;;;;;;;12.90;98.40;;;;;;5089730;28;19961;-65
2021/08/13 14:02:39;;;;;;;;;;;12.90;98.50;;;;;;5094211;28;19926;-65
2021/08/13 14:05:08;;;;;;;;;;;12.90;98.60;;;;;;5093933;28;19912;-65
2021/08/13 14:07:38;;;;;;;;;;;12.90;98.80;;;;;;5093674;28;19912;-65
2021/08/13 14:10:06;;;;;;;;;;;12.90;99.10;;;;;;5093546;28;19924;-65
2021/08/13 14:12:33;;;;;;;;;;;12.90;98.80;;;;;;5094273;28;19988;-64
2021/08/13 14:15:00;;;;;;;;;;;12.90;98.10;;;;;;5093034;28;19962;-65
2021/08/13 14:17:26;;;;;;;;;;;12.80;98.20;;;;;;5093594;28;19912;-65
2021/08/13 14:19:53;;;;;;;;;;;12.80;98.40;;;;;;5093524;28;20337;-65
2021/08/13 14:22:19;;;;;;;;;;;12.70;98.20;;;;;;5093047;28;19908;-64